createdAt,value
2023-04-18T00:02:39.141Z,100.00
2023-04-18T00:05:23.185Z,100.00
2023-04-18T00:08:06.787Z,100.00
2023-04-18T00:10:50.470Z,100.00
2023-04-18T00:13:34.126Z,100.00
2023-04-18T00:16:17.737Z,100.00
2023-04-18T00:19:05.393Z,100.00
2023-04-18T00:21:49.580Z,100.00
2023-04-18T00:24:33.111Z,100.00
2023-04-18T00:27:18.975Z,100.00
2023-04-18T00:30:02.514Z,100.00
2023-04-18T00:32:46.055Z,100.00
2023-04-18T00:35:29.791Z,100.00
2023-04-18T00:38:13.358Z,100.00
2023-04-18T00:40:57.538Z,100.00
2023-04-18T00:43:41.103Z,100.00
2023-04-18T00:46:24.726Z,100.00
2023-04-18T00:49:08.641Z,100.00
2023-04-18T00:51:53.570Z,100.00
2023-04-18T00:54:37.610Z,100.00
2023-04-18T00:57:22.521Z,100.00
2023-04-18T01:00:10.578Z,100.00
2023-04-18T01:02:56.066Z,100.00
2023-04-18T01:05:39.878Z,100.00
2023-04-18T01:08:24.592Z,100.00
2023-04-18T01:11:08.184Z,100.00
2023-04-18T01:14:06.281Z,100.00
2023-04-18T01:16:52.973Z,100.00
2023-04-18T01:19:38.089Z,100.00
2023-04-18T01:22:24.058Z,100.00
2023-04-18T01:25:09.433Z,100.00
2023-04-18T01:27:54.432Z,100.00
2023-04-18T01:30:38.129Z,100.00
2023-04-18T01:33:21.851Z,100.00
2023-04-18T01:36:05.513Z,100.00
2023-04-18T01:38:49.053Z,100.00
2023-04-18T01:41:33.107Z,100.00
2023-04-18T01:44:16.838Z,97.68
2023-04-18T01:47:02.974Z,97.27
2023-04-18T01:49:49.759Z,99.69
2023-04-18T01:52:33.521Z,100.00
2023-04-18T01:55:17.243Z,100.00
2023-04-18T01:58:00.846Z,100.00
2023-04-18T02:00:44.553Z,100.00
2023-04-18T02:03:28.349Z,100.00
2023-04-18T02:06:11.978Z,100.00
2023-04-18T02:08:55.616Z,100.00
2023-04-18T02:11:41.901Z,100.00
2023-04-18T02:14:27.270Z,100.00
2023-04-18T02:17:10.863Z,100.00
2023-04-18T02:19:54.525Z,100.00
2023-04-18T02:22:39.629Z,100.00
2023-04-18T02:25:24.338Z,100.00
2023-04-18T02:28:07.986Z,100.00
2023-04-18T02:30:51.621Z,100.00
2023-04-18T02:33:35.230Z,100.00
2023-04-18T02:36:18.812Z,100.00
2023-04-18T02:39:02.395Z,100.00
2023-04-18T02:41:46.013Z,100.00
2023-04-18T02:44:29.728Z,100.00
2023-04-18T02:47:13.263Z,100.00
2023-04-18T02:49:59.413Z,100.00
2023-04-18T02:52:44.392Z,100.00
2023-04-18T02:55:28.299Z,100.00
2023-04-18T02:58:14.877Z,100.00
2023-04-18T03:01:07.566Z,100.00
2023-04-18T03:04:08.127Z,100.00
2023-04-18T03:07:04.802Z,100.00
2023-04-18T03:09:52.654Z,100.00
2023-04-18T03:12:41.392Z,100.00
2023-04-18T03:15:26.923Z,100.00
2023-04-18T03:18:12.609Z,100.00
2023-04-18T03:20:57.982Z,99.39
2023-04-18T03:23:42.149Z,100.00
2023-04-18T03:26:26.022Z,100.00
2023-04-18T03:29:10.994Z,100.00
2023-04-18T03:31:56.001Z,100.00
2023-04-18T03:34:39.884Z,100.00
2023-04-18T03:37:24.949Z,100.00
2023-04-18T03:40:11.755Z,100.00
2023-04-18T03:42:57.961Z,100.00
2023-04-18T03:45:41.601Z,100.00
2023-04-18T03:48:25.380Z,100.00
2023-04-18T03:51:09.539Z,100.00
2023-04-18T03:53:53.973Z,100.00
2023-04-18T03:56:37.809Z,100.00
2023-04-18T03:59:21.710Z,100.00
2023-04-18T04:02:07.299Z,100.00
2023-04-18T04:04:51.122Z,100.00
2023-04-18T04:07:35.212Z,100.00
2023-04-18T04:10:18.918Z,100.00
2023-04-18T04:13:04.179Z,100.00
2023-04-18T04:15:50.763Z,100.00
2023-04-18T04:18:34.697Z,100.00
2023-04-18T04:21:21.213Z,100.00
2023-04-18T04:24:08.395Z,100.00
2023-04-18T04:26:59.897Z,100.00
2023-04-18T04:29:43.880Z,100.00
2023-04-18T04:32:29.218Z,100.00
2023-04-18T04:35:12.877Z,100.00
2023-04-18T04:37:56.639Z,100.00
2023-04-18T04:40:50.029Z,100.00
2023-04-18T04:43:35.381Z,100.00
2023-04-18T04:46:20.332Z,100.00
2023-04-18T04:49:06.675Z,100.00
2023-04-18T04:51:50.292Z,100.00
2023-04-18T04:54:33.870Z,100.00
2023-04-18T04:57:18.044Z,100.00
2023-04-18T05:00:01.831Z,100.00
2023-04-18T05:02:46.577Z,100.00
2023-04-18T05:05:30.791Z,100.00
2023-04-18T05:08:14.643Z,100.00
2023-04-18T05:10:58.318Z,100.00
2023-04-18T05:13:42.015Z,100.00
2023-04-18T05:16:26.408Z,100.00
2023-04-18T05:19:10.033Z,100.00
2023-04-18T05:21:53.670Z,100.00
2023-04-18T05:24:37.332Z,100.00
2023-04-18T05:27:21.765Z,100.00
2023-04-18T05:30:06.513Z,100.00
2023-04-18T05:32:50.305Z,100.00
2023-04-18T05:35:34.145Z,100.00
2023-04-18T05:38:17.831Z,100.00
2023-04-18T05:41:03.208Z,100.00
2023-04-18T05:43:54.513Z,100.00
2023-04-18T05:46:51.475Z,100.00
2023-04-18T05:49:35.164Z,100.00
2023-04-18T05:52:18.802Z,100.00
2023-04-18T05:55:02.324Z,100.00
2023-04-18T05:57:46.078Z,100.00
2023-04-18T06:00:29.757Z,100.00
2023-04-18T06:03:13.564Z,100.00
2023-04-18T06:05:57.752Z,100.00
2023-04-18T06:08:41.713Z,100.00
2023-04-18T06:11:25.339Z,100.00
2023-04-18T06:14:09.043Z,100.00
2023-04-18T06:16:52.680Z,100.00
2023-04-18T06:19:36.440Z,100.00
2023-04-18T06:22:20.109Z,100.00
2023-04-18T06:25:04.133Z,100.00
2023-04-18T06:27:47.698Z,100.00
2023-04-18T06:30:31.411Z,100.00
2023-04-18T06:33:15.126Z,100.00
2023-04-18T06:35:59.458Z,100.00
2023-04-18T06:38:43.355Z,100.00
2023-04-18T06:41:26.912Z,100.00
2023-04-18T06:44:10.649Z,100.00
2023-04-18T06:46:55.103Z,100.00
2023-04-18T06:49:38.686Z,100.00
2023-04-18T06:52:22.241Z,100.00
2023-04-18T06:55:07.566Z,100.00
2023-04-18T06:57:51.159Z,100.00
2023-04-18T07:00:34.773Z,100.00
2023-04-18T07:03:18.600Z,100.00
2023-04-18T07:06:03.224Z,100.00
2023-04-18T07:08:47.003Z,100.00
2023-04-18T07:11:33.446Z,100.00
2023-04-18T07:14:17.235Z,100.00
2023-04-18T07:17:01.781Z,100.00
2023-04-18T07:19:45.585Z,100.00
2023-04-18T07:22:29.236Z,99.99
2023-04-18T07:25:15.849Z,100.00
2023-04-18T07:27:59.897Z,99.26
2023-04-18T07:30:43.548Z,99.61
2023-04-18T07:33:27.106Z,98.81
2023-04-18T07:36:11.080Z,96.18
2023-04-18T07:38:54.671Z,97.42
2023-04-18T07:41:38.213Z,96.67
2023-04-18T07:44:22.141Z,95.99
2023-04-18T07:47:11.516Z,97.83
2023-04-18T07:49:55.561Z,97.37
2023-04-18T07:52:39.587Z,99.47
2023-04-18T07:55:24.471Z,98.22
2023-04-18T07:58:07.993Z,99.20
2023-04-18T08:00:54.043Z,98.79
2023-04-18T08:03:37.670Z,98.55
2023-04-18T08:06:21.889Z,97.81
2023-04-18T08:09:06.165Z,97.73
2023-04-18T08:11:49.749Z,97.27
2023-04-18T08:14:33.349Z,96.74
2023-04-18T08:17:16.993Z,97.72
2023-04-18T08:20:05.080Z,98.15
2023-04-18T08:23:05.068Z,95.71
2023-04-18T08:25:50.278Z,96.63
2023-04-18T08:28:33.833Z,100.00
2023-04-18T08:31:17.426Z,99.20
2023-04-18T08:34:02.607Z,99.32
2023-04-18T08:36:48.516Z,98.67
2023-04-18T08:39:32.048Z,98.92
2023-04-18T08:42:19.687Z,98.71
2023-04-18T08:45:04.351Z,97.43
2023-04-18T08:47:48.143Z,96.33
2023-04-18T09:09:47.334Z,93.59
2023-04-18T09:12:32.911Z,93.69
2023-04-18T09:15:23.815Z,92.93
2023-04-18T09:18:11.144Z,91.53
2023-04-18T09:21:16.237Z,90.48
2023-04-18T09:24:24.299Z,91.92
2023-04-18T09:27:15.834Z,90.46
2023-04-18T09:30:00.981Z,88.56
2023-04-18T09:32:57.009Z,89.84
2023-04-18T09:35:47.262Z,90.28
2023-04-18T09:38:41.854Z,87.54
2023-04-18T09:41:25.882Z,89.36
2023-04-18T09:44:14.930Z,88.56
2023-04-18T09:47:00.040Z,90.05
2023-04-18T09:49:43.747Z,89.70
2023-04-18T09:52:36.074Z,88.56
2023-04-18T09:55:20.176Z,87.56
2023-04-18T09:58:04.920Z,87.38
2023-04-18T10:00:54.939Z,87.30
2023-04-18T10:03:47.765Z,86.63
2023-04-18T10:06:34.996Z,86.01
2023-04-18T10:09:19.783Z,85.54
2023-04-18T10:12:03.845Z,84.78
2023-04-18T10:14:47.954Z,86.86
2023-04-18T10:18:02.670Z,85.63
2023-04-18T10:20:51.893Z,86.82
2023-04-18T10:23:39.350Z,87.82
2023-04-18T10:26:50.528Z,84.62
2023-04-18T10:29:52.978Z,85.30
2023-04-18T10:32:36.612Z,84.79
2023-04-18T10:35:21.687Z,85.78
2023-04-18T10:38:05.334Z,82.04
2023-04-18T10:40:48.997Z,82.81
2023-04-18T10:44:10.256Z,81.06
2023-04-18T10:46:53.755Z,79.14
2023-04-18T10:49:37.337Z,82.96
2023-04-18T10:52:23.507Z,83.79
2023-04-18T10:55:19.024Z,85.89
2023-04-18T10:58:03.641Z,84.34
2023-04-18T11:00:51.679Z,82.73
2023-04-18T11:03:36.385Z,80.08
2023-04-18T11:06:28.466Z,78.93
2023-04-18T11:09:14.113Z,81.78
2023-04-18T11:12:09.592Z,84.23
2023-04-18T11:14:53.256Z,84.22
2023-04-18T11:17:40.358Z,83.17
2023-04-18T11:20:24.057Z,80.56
2023-04-18T11:23:18.366Z,82.22
2023-04-18T11:26:01.998Z,82.05
2023-04-18T11:28:54.830Z,84.60
2023-04-18T11:31:38.533Z,83.58
2023-04-18T11:34:28.215Z,83.70
2023-04-18T11:37:15.661Z,82.33
2023-04-18T11:39:59.340Z,83.14
2023-04-18T11:42:43.188Z,83.00
2023-04-18T11:45:27.541Z,81.62
2023-04-18T11:48:11.572Z,83.71
2023-04-18T11:50:55.116Z,82.32
2023-04-18T11:53:39.706Z,83.21
2023-04-18T11:56:23.302Z,82.15
2023-04-18T11:59:10.194Z,81.44
2023-04-18T12:02:15.458Z,79.79
2023-04-18T12:05:00.825Z,82.94
2023-04-18T12:07:45.996Z,81.88
2023-04-18T12:10:30.029Z,80.94
2023-04-18T12:13:14.089Z,81.45
2023-04-18T12:15:58.260Z,80.16
2023-04-18T12:18:42.067Z,78.40
2023-04-18T12:21:29.480Z,79.58
2023-04-18T12:24:16.245Z,79.85
2023-04-18T12:27:00.215Z,82.28
2023-04-18T12:29:43.840Z,81.30
2023-04-18T12:32:27.484Z,79.89
2023-04-18T12:35:14.440Z,80.15
2023-04-18T12:38:01.372Z,80.27
2023-04-18T12:40:45.167Z,78.18
2023-04-18T12:43:29.042Z,76.63
2023-04-18T12:46:12.669Z,78.08
2023-04-18T12:48:57.391Z,77.74
2023-04-18T12:51:40.943Z,79.77
2023-04-18T12:54:27.336Z,79.02
2023-04-18T12:57:11.403Z,78.10
2023-04-18T12:59:55.110Z,79.04
2023-04-18T13:02:41.747Z,78.00
2023-04-18T13:05:32.608Z,74.81
2023-04-18T13:08:18.135Z,76.74
2023-04-18T13:11:01.851Z,76.18
2023-04-18T13:13:45.665Z,74.97
2023-04-18T13:16:31.840Z,75.54
2023-04-18T13:19:15.689Z,76.03
2023-04-18T13:21:59.443Z,76.28
2023-04-18T13:24:43.011Z,74.92
2023-04-18T13:27:26.669Z,75.96
2023-04-18T13:30:11.687Z,74.91
2023-04-18T13:32:55.515Z,73.23
2023-04-18T13:35:39.138Z,73.85
2023-04-18T13:38:22.864Z,74.72
2023-04-18T13:41:12.771Z,74.54
2023-04-18T13:43:57.184Z,74.86
2023-04-18T13:46:41.068Z,74.49
2023-04-18T13:49:24.862Z,72.95
2023-04-18T13:52:08.558Z,73.63
2023-04-18T13:54:52.249Z,74.26
2023-04-18T13:57:37.453Z,75.02
2023-04-18T14:00:21.244Z,74.78
2023-04-18T14:03:05.183Z,76.01
2023-04-18T14:05:48.904Z,76.56
2023-04-18T14:08:32.455Z,78.18
2023-04-18T14:11:16.339Z,77.07
2023-04-18T14:13:59.942Z,75.97
2023-04-18T14:16:43.608Z,76.14
2023-04-18T14:19:27.760Z,76.81
2023-04-18T14:22:12.178Z,75.65
2023-04-18T14:24:56.286Z,76.20
2023-04-18T14:27:40.325Z,77.17
2023-04-18T14:30:25.307Z,76.64
2023-04-18T14:33:10.284Z,75.66
2023-04-18T14:35:53.865Z,76.69
2023-04-18T14:38:37.387Z,76.50
2023-04-18T14:41:21.216Z,75.13
2023-04-18T14:44:04.938Z,73.00
2023-04-18T14:46:48.644Z,74.22
2023-04-18T14:49:33.516Z,73.65
2023-04-18T14:52:17.105Z,74.72
2023-04-18T14:55:01.847Z,75.09
2023-04-18T14:57:46.134Z,72.89
2023-04-18T15:00:31.199Z,73.99
2023-04-18T15:03:16.487Z,71.65
2023-04-18T15:06:00.666Z,73.41
2023-04-18T15:08:47.311Z,73.07
2023-04-18T15:11:30.829Z,72.41
2023-04-18T15:14:14.873Z,73.27
2023-04-18T15:16:58.897Z,72.84
2023-04-18T15:19:42.563Z,73.04
2023-04-18T15:22:26.194Z,73.44
2023-04-18T15:25:09.986Z,72.80
2023-04-18T15:27:53.607Z,71.71
2023-04-18T15:30:37.207Z,71.99
2023-04-18T15:33:21.241Z,71.76
2023-04-18T15:36:05.296Z,71.63
2023-04-18T15:38:48.927Z,72.65
2023-04-18T15:41:37.125Z,73.05
2023-04-18T15:44:22.220Z,71.43
2023-04-18T15:47:06.081Z,71.59
2023-04-18T15:49:49.700Z,72.35
2023-04-18T15:52:33.349Z,70.89
2023-04-18T15:55:16.946Z,71.44
2023-04-18T15:58:00.487Z,70.81
2023-04-18T16:00:44.497Z,71.48
2023-04-18T16:03:28.131Z,71.42
2023-04-18T16:06:14.839Z,71.24
2023-04-18T16:08:58.671Z,71.52
2023-04-18T16:11:42.255Z,70.94
2023-04-18T16:14:25.810Z,70.68
2023-04-18T16:17:09.398Z,70.98
2023-04-18T16:19:54.332Z,71.52
2023-04-18T16:22:38.048Z,70.74
2023-04-18T16:25:21.608Z,70.43
2023-04-18T16:28:05.270Z,69.49
2023-04-18T16:30:49.123Z,67.93
2023-04-18T16:33:33.123Z,68.29
2023-04-18T16:36:16.955Z,67.92
2023-04-18T16:39:00.552Z,67.06
2023-04-18T16:41:44.297Z,66.00
2023-04-18T16:44:27.841Z,67.67
2023-04-18T16:47:11.413Z,67.10
2023-04-18T16:49:55.689Z,66.34
2023-04-18T16:52:39.374Z,66.72
2023-04-18T16:55:23.419Z,66.49
2023-04-18T16:58:07.184Z,66.22
2023-04-18T17:00:51.225Z,66.92
2023-04-18T17:03:35.328Z,66.51
2023-04-18T17:06:19.697Z,68.02
2023-04-18T17:09:06.476Z,67.72
2023-04-18T17:11:50.820Z,68.07
2023-04-18T17:14:35.036Z,67.48
2023-04-18T17:17:18.563Z,68.45
2023-04-18T17:20:02.278Z,68.06
2023-04-18T17:22:48.417Z,68.10
2023-04-18T17:25:32.097Z,68.64
2023-04-18T17:28:16.517Z,68.95
2023-04-18T17:31:01.996Z,68.53
2023-04-18T17:33:46.046Z,68.95
2023-04-18T17:36:29.870Z,68.74
2023-04-18T17:39:16.461Z,69.87
2023-04-18T17:42:01.180Z,70.70
2023-04-18T17:44:45.278Z,71.83
2023-04-18T17:47:29.048Z,72.31
2023-04-18T17:50:13.064Z,72.54
2023-04-18T17:52:57.707Z,72.38
2023-04-18T17:55:41.490Z,73.44
2023-04-18T17:58:26.748Z,74.21
2023-04-18T18:01:17.391Z,74.26
2023-04-18T18:04:01.320Z,74.86
2023-04-18T18:06:56.803Z,74.84
2023-04-18T18:09:43.577Z,74.70
2023-04-18T18:12:27.235Z,75.15
2023-04-18T18:15:11.367Z,76.21
2023-04-18T18:17:55.683Z,76.13
2023-04-18T18:20:43.374Z,76.81
2023-04-18T18:23:27.409Z,76.60
2023-04-18T18:26:12.542Z,76.60
2023-04-18T18:28:56.109Z,76.15
2023-04-18T18:31:39.790Z,76.40
2023-04-18T18:34:23.429Z,76.45
2023-04-18T18:37:07.511Z,76.02
2023-04-18T18:39:51.125Z,75.50
2023-04-18T18:42:34.726Z,75.45
2023-04-18T18:45:19.860Z,74.75
2023-04-18T18:48:04.175Z,75.03
2023-04-18T18:50:48.167Z,74.34
2023-04-18T18:53:31.745Z,74.88
2023-04-18T18:56:15.541Z,74.83
2023-04-18T18:58:59.114Z,75.38
2023-04-18T19:01:42.740Z,75.03
2023-04-18T19:04:26.697Z,74.38
2023-04-18T19:07:10.445Z,74.11
2023-04-18T19:09:55.399Z,73.12
2023-04-18T19:12:38.998Z,73.81
2023-04-18T19:15:23.017Z,74.17
2023-04-18T19:18:06.720Z,74.08
2023-04-18T19:20:51.180Z,73.41
2023-04-18T19:23:34.724Z,72.51
2023-04-18T19:26:18.752Z,72.45
2023-04-18T19:29:02.376Z,72.60
2023-04-18T19:31:46.080Z,71.63
2023-04-18T19:34:29.710Z,70.24
2023-04-18T19:37:13.276Z,70.63
2023-04-18T19:39:56.829Z,70.42
2023-04-18T19:42:41.003Z,71.04
2023-04-18T19:45:24.823Z,71.63
2023-04-18T19:48:08.381Z,71.13
2023-04-18T19:50:51.963Z,73.32
2023-04-18T19:53:35.648Z,72.40
2023-04-18T19:56:19.199Z,72.82
2023-04-18T19:59:04.911Z,72.25
2023-04-18T20:01:48.511Z,72.59
2023-04-18T20:04:34.466Z,73.10
2023-04-18T20:07:18.085Z,73.48
2023-04-18T20:10:02.253Z,74.77
2023-04-18T20:12:46.279Z,74.91
2023-04-18T20:15:30.899Z,75.29
2023-04-18T20:18:14.503Z,75.67
2023-04-18T20:20:58.698Z,76.17
2023-04-18T20:23:42.886Z,76.63
2023-04-18T20:26:26.544Z,77.41
2023-04-18T20:29:12.667Z,77.47
2023-04-18T20:31:56.497Z,78.38
2023-04-18T20:34:40.104Z,79.03
2023-04-18T20:37:24.656Z,79.45
2023-04-18T20:40:09.721Z,79.88
2023-04-18T20:42:57.805Z,80.37
2023-04-18T20:45:43.021Z,80.72
2023-04-18T20:48:26.672Z,81.19
2023-04-18T20:51:10.322Z,81.59
2023-04-18T20:53:53.874Z,81.34
2023-04-18T20:56:37.571Z,81.48
2023-04-18T20:59:21.075Z,81.96
2023-04-18T21:02:04.830Z,82.48
2023-04-18T21:04:48.957Z,81.89
2023-04-18T21:07:32.588Z,80.85
2023-04-18T21:10:16.113Z,82.63
2023-04-18T21:12:59.610Z,81.71
2023-04-18T21:15:43.250Z,83.32
2023-04-18T21:18:26.863Z,83.67
2023-04-18T21:21:10.435Z,83.29
2023-04-18T21:23:53.968Z,84.36
2023-04-18T21:26:37.517Z,84.26
2023-04-18T21:29:21.928Z,84.96
2023-04-18T21:32:05.546Z,84.85
2023-04-18T21:34:49.041Z,84.81
2023-04-18T21:37:32.770Z,85.70
2023-04-18T21:40:16.367Z,87.73
2023-04-18T21:42:59.928Z,87.77
2023-04-18T21:45:43.519Z,86.71
2023-04-18T21:48:27.082Z,87.32
2023-04-18T21:51:13.222Z,88.26
2023-04-18T21:53:56.697Z,89.39
2023-04-18T21:56:40.469Z,89.11
2023-04-18T21:59:24.015Z,90.72
2023-04-18T22:02:07.693Z,90.54
2023-04-18T22:04:51.251Z,90.14
2023-04-18T22:07:43.243Z,90.95
2023-04-18T22:10:35.361Z,91.51
2023-04-18T22:13:19.138Z,90.78
2023-04-18T22:16:03.894Z,90.68
2023-04-18T22:18:48.969Z,90.65
2023-04-18T22:21:32.668Z,90.85
2023-04-18T22:24:16.383Z,90.88
2023-04-18T22:27:01.330Z,91.41
2023-04-18T22:29:44.851Z,91.68
2023-04-18T22:32:28.373Z,90.93
2023-04-18T22:35:11.928Z,91.78
2023-04-18T22:37:55.885Z,90.26
2023-04-18T22:40:39.382Z,89.52
2023-04-18T22:59:44.350Z,84.92
2023-04-18T23:02:28.175Z,84.56
2023-04-18T23:05:11.868Z,83.62
2023-04-18T23:07:56.935Z,83.19
2023-04-18T23:10:41.936Z,82.94
2023-04-18T23:21:20.425Z,81.66
2023-04-18T23:24:04.005Z,80.43
2023-04-18T23:26:47.540Z,80.62
2023-04-18T23:29:31.083Z,81.05
2023-04-18T23:32:14.881Z,81.06
2023-04-18T23:34:59.724Z,79.64
2023-04-18T23:37:43.448Z,79.89
2023-04-18T23:40:26.946Z,79.76
2023-04-18T23:48:17.522Z,78.90
2023-04-18T23:51:01.038Z,78.38
2023-04-18T23:53:44.561Z,78.78
2023-04-18T23:56:29.809Z,78.18
2023-04-18T23:59:13.269Z,76.85
